Time;durP1;ratioP1;P1;durP2;ratioP2;P2;SDS_P1;SDS_P2;PMS_P1;PMS_P2;Temp;Humidity;BMP_temperature;BMP_pressure;BME280_temperature;BME280_humidity;BME280_pressure;Samples;Min_cycle;Max_cycle;Signal;HPM_P1;HPM_P2
2024/01/29 00:01:22;;;;;;;8.27;2.92;;;4.50;72.40;;;;;;5054016;28;20036;-52
2024/01/29 00:03:49;;;;;;;6.80;2.63;;;4.50;72.40;;;;;;5052100;28;20116;-49
2024/01/29 00:06:15;;;;;;;5.30;2.55;;;4.40;72.40;;;;;;5037168;28;20033;-49
2024/01/29 00:08:43;;;;;;;6.35;2.78;;;4.40;72.10;;;;;;5054572;28;20021;-48
2024/01/29 00:11:11;;;;;;;6.07;2.63;;;4.50;71.90;;;;;;5053447;28;20074;-50
2024/01/29 00:13:39;;;;;;;5.68;2.58;;;4.50;71.90;;;;;;5054462;28;20096;-48
2024/01/29 00:16:05;;;;;;;5.80;2.53;;;4.40;72.10;;;;;;5054277;28;20040;-48
2024/01/29 00:18:31;;;;;;;7.32;2.47;;;4.50;71.70;;;;;;5051822;28;20474;-51
2024/01/29 00:20:57;;;;;;;7.30;3.08;;;4.50;71.70;;;;;;5051485;28;20055;-50
2024/01/29 00:23:25;;;;;;;7.93;2.83;;;4.50;71.90;;;;;;5053802;28;20244;-48
2024/01/29 00:25:51;;;;;;;5.95;2.58;;;4.50;71.80;;;;;;5053918;28;20536;-51
2024/01/29 00:28:16;;;;;;;3.92;2.55;;;4.40;71.80;;;;;;5053703;28;20116;-48
2024/01/29 00:30:42;;;;;;;5.15;2.67;;;4.50;71.70;;;;;;5053819;28;20029;-49
2024/01/29 00:33:07;;;;;;;3.92;2.22;;;4.50;71.50;;;;;;5035553;28;20107;-49
2024/01/29 00:35:35;;;;;;;7.90;2.65;;;4.40;71.80;;;;;;5053107;28;20120;-50
2024/01/29 00:38:01;;;;;;;5.68;2.75;;;4.50;71.70;;;;;;5053818;28;20028;-48
2024/01/29 00:40:27;;;;;;;6.25;3.13;;;4.40;72.00;;;;;;5053179;28;20116;-48
2024/01/29 00:42:53;;;;;;;4.50;2.60;;;4.40;71.80;;;;;;5053473;28;20021;-48
2024/01/29 00:45:19;;;;;;;5.75;2.70;;;4.30;72.40;;;;;;5053154;28;20067;-51
2024/01/29 00:47:48;;;;;;;4.53;2.22;;;4.20;72.90;;;;;;5036024;28;20028;-49
2024/01/29 00:50:13;;;;;;;5.05;2.45;;;4.20;73.00;;;;;;5051423;28;20025;-49
2024/01/29 00:52:39;;;;;;;4.35;2.58;;;4.20;72.70;;;;;;5050839;28;20090;-48
2024/01/29 00:55:05;;;;;;;4.88;2.33;;;4.20;73.00;;;;;;5053462;28;20045;-48
2024/01/29 00:57:31;;;;;;;4.80;2.80;;;4.20;73.00;;;;;;5053525;28;20029;-49
2024/01/29 00:59:57;;;;;;;6.40;2.33;;;4.20;73.10;;;;;;5041529;28;20331;-52
2024/01/29 01:02:22;;;;;;;5.60;2.60;;;4.10;73.10;;;;;;5053488;28;20035;-47
2024/01/29 01:04:48;;;;;;;6.10;2.50;;;4.00;73.30;;;;;;5034523;28;20390;-49
2024/01/29 01:07:13;;;;;;;7.45;3.10;;;4.10;72.90;;;;;;5051876;28;20040;-48
2024/01/29 01:09:39;;;;;;;3.97;1.90;;;4.10;73.20;;;;;;5052359;28;20017;-48
2024/01/29 01:12:05;;;;;;;4.78;2.33;;;4.00;73.50;;;;;;5053044;28;20029;-49
2024/01/29 01:14:31;;;;;;;4.05;2.50;;;4.00;73.70;;;;;;5052676;28;20028;-49
2024/01/29 01:16:56;;;;;;;3.85;2.33;;;4.00;73.80;;;;;;5053035;28;20143;-48
2024/01/29 01:19:22;;;;;;;6.95;3.00;;;3.90;73.70;;;;;;5052009;28;20029;-50
2024/01/29 01:21:50;;;;;;;5.15;2.63;;;3.90;73.60;;;;;;5052961;28;20484;-49
2024/01/29 01:24:15;;;;;;;9.10;3.03;;;3.90;73.80;;;;;;5053039;28;20393;-50
2024/01/29 01:26:43;;;;;;;4.70;2.90;;;3.90;74.20;;;;;;5053357;28;20020;-51
2024/01/29 01:29:09;;;;;;;4.88;2.75;;;3.80;74.20;;;;;;5053264;28;20440;-49
2024/01/29 01:31:35;;;;;;;4.30;2.70;;;3.70;74.20;;;;;;5052357;28;20036;-48
2024/01/29 01:34:01;;;;;;;5.53;2.90;;;3.70;73.90;;;;;;5052039;28;20350;-48
2024/01/29 01:36:26;;;;;;;6.15;2.80;;;3.70;74.30;;;;;;5052561;28;20036;-49
2024/01/29 01:38:52;;;;;;;5.90;2.42;;;3.70;74.10;;;;;;5051664;28;20338;-49
2024/01/29 01:41:20;;;;;;;4.93;2.80;;;3.70;74.00;;;;;;5052497;28;20033;-48
2024/01/29 01:43:45;;;;;;;5.07;2.55;;;3.70;74.30;;;;;;5052028;28;20167;-48
2024/01/29 01:46:14;;;;;;;5.50;2.60;;;3.70;74.40;;;;;;5051712;28;20103;-50
2024/01/29 01:48:40;;;;;;;4.82;2.35;;;3.70;74.20;;;;;;5051933;28;20102;-49
2024/01/29 01:51:05;;;;;;;5.90;3.17;;;3.60;74.50;;;;;;5050620;28;20066;-48
2024/01/29 01:53:36;;;;;;;4.95;2.83;;;3.70;74.70;;;;;;5052506;28;20421;-51
2024/01/29 01:56:03;;;;;;;4.32;2.67;;;3.70;74.10;;;;;;5052153;28;20531;-49
2024/01/29 01:58:32;;;;;;;4.95;2.75;;;3.70;74.40;;;;;;5044965;28;20032;-50
2024/01/29 02:01:00;;;;;;;6.28;3.35;;;3.70;74.20;;;;;;5052380;28;20032;-49
2024/01/29 02:03:27;;;;;;;4.88;2.50;;;3.60;74.10;;;;;;5052070;28;20039;-48
2024/01/29 02:05:53;;;;;;;4.80;2.47;;;3.70;74.30;;;;;;5028517;28;20365;-50
2024/01/29 02:08:19;;;;;;;3.72;2.30;;;3.60;74.30;;;;;;5052244;28;20025;-49
2024/01/29 02:10:45;;;;;;;5.22;2.47;;;3.60;74.30;;;;;;5052259;28;20021;-48
2024/01/29 02:13:14;;;;;;;4.28;2.67;;;3.60;74.40;;;;;;5052185;28;20087;-49
2024/01/29 02:15:41;;;;;;;7.07;3.75;;;3.60;74.20;;;;;;5051524;28;20307;-49
2024/01/29 02:18:07;;;;;;;4.72;3.08;;;3.60;74.10;;;;;;5052193;28;20036;-49
2024/01/29 02:20:36;;;;;;;5.03;2.80;;;3.60;74.20;;;;;;5041170;28;20045;-49
2024/01/29 02:23:05;;;;;;;4.55;2.85;;;3.50;74.30;;;;;;5051564;28;20496;-47
2024/01/29 02:25:31;;;;;;;4.30;2.57;;;3.60;74.30;;;;;;5051958;28;20048;-50
2024/01/29 02:27:56;;;;;;;6.03;2.60;;;3.60;74.30;;;;;;5051819;28;20267;-49
2024/01/29 02:30:22;;;;;;;5.85;3.22;;;3.60;73.80;;;;;;5051869;28;20492;-50
2024/01/29 02:32:47;;;;;;;6.45;2.35;;;3.60;74.20;;;;;;5051206;28;20091;-49
2024/01/29 02:35:13;;;;;;;4.95;3.08;;;3.60;74.30;;;;;;5047057;28;20086;-49
2024/01/29 02:37:39;;;;;;;4.65;2.10;;;3.60;74.10;;;;;;5051499;28;20029;-47
2024/01/29 02:40:10;;;;;;;6.93;2.75;;;3.60;74.20;;;;;;5051767;28;20453;-50
2024/01/29 02:42:35;;;;;;;4.68;2.70;;;3.70;73.90;;;;;;5050568;28;20029;-49
2024/01/29 02:45:04;;;;;;;4.82;2.42;;;3.70;73.90;;;;;;5051832;28;20043;-48
2024/01/29 02:47:30;;;;;;;4.95;2.47;;;3.70;73.60;;;;;;5051338;28;20028;-48
2024/01/29 02:49:55;;;;;;;4.05;2.38;;;3.70;73.60;;;;;;5050197;28;20044;-50
2024/01/29 02:52:21;;;;;;;6.45;2.90;;;3.70;73.60;;;;;;5051724;28;20021;-49
2024/01/29 02:54:47;;;;;;;6.47;3.05;;;3.70;73.70;;;;;;5051296;28;20032;-50
2024/01/29 02:57:13;;;;;;;4.45;2.50;;;3.80;73.40;;;;;;5050829;28;20289;-48
2024/01/29 02:59:38;;;;;;;5.10;2.60;;;3.80;73.40;;;;;;5045873;28;20457;-49
2024/01/29 03:02:06;;;;;;;5.57;2.47;;;3.90;73.30;;;;;;5049414;28;20040;-47
2024/01/29 03:04:32;;;;;;;4.38;2.95;;;3.90;73.10;;;;;;5032943;28;20036;-49
2024/01/29 03:06:57;;;;;;;5.13;2.70;;;3.90;73.30;;;;;;5051178;28;20094;-48
2024/01/29 03:09:25;;;;;;;5.00;2.60;;;3.90;73.20;;;;;;5048276;28;20646;-48
2024/01/29 03:11:51;;;;;;;4.35;2.45;;;3.80;73.60;;;;;;5039436;28;20026;-48
2024/01/29 03:14:17;;;;;;;6.10;2.92;;;3.80;73.60;;;;;;5048141;28;20075;-49
2024/01/29 03:16:42;;;;;;;6.90;4.13;;;3.80;73.90;;;;;;5050682;28;20052;-48
2024/01/29 03:19:08;;;;;;;3.90;2.40;;;3.80;73.90;;;;;;5051072;28;20025;-48
2024/01/29 03:21:34;;;;;;;5.47;2.63;;;3.80;74.00;;;;;;5049323;28;20045;-51
2024/01/29 03:24:02;;;;;;;4.10;2.33;;;3.70;74.20;;;;;;5051040;28;20025;-49
2024/01/29 03:26:27;;;;;;;4.40;2.65;;;3.70;74.40;;;;;;5050382;28;20104;-48
2024/01/29 03:28:54;;;;;;;5.47;2.88;;;3.70;74.50;;;;;;5051110;28;20683;-48
2024/01/29 03:31:20;;;;;;;4.28;2.42;;;3.70;74.30;;;;;;5050948;28;20021;-47
2024/01/29 03:33:47;;;;;;;5.75;2.67;;;3.70;74.20;;;;;;5046046;28;20341;-50
2024/01/29 03:36:13;;;;;;;4.63;3.05;;;3.70;74.40;;;;;;5048107;28;20037;-48
2024/01/29 03:38:39;;;;;;;4.60;3.08;;;3.70;74.50;;;;;;5054738;28;20350;-51
2024/01/29 03:41:04;;;;;;;4.70;2.50;;;3.70;74.50;;;;;;5054861;28;20448;-48
2024/01/29 03:43:30;;;;;;;5.13;3.13;;;3.60;74.90;;;;;;5054645;28;20036;-49
2024/01/29 03:45:56;;;;;;;5.20;2.95;;;3.60;74.90;;;;;;5036523;28;20065;-47
2024/01/29 03:48:22;;;;;;;5.68;3.28;;;3.60;75.00;;;;;;5054808;28;20021;-48
2024/01/29 03:50:47;;;;;;;3.65;2.30;;;3.60;75.00;;;;;;5052971;28;20020;-48
2024/01/29 03:53:13;;;;;;;3.58;2.35;;;3.50;75.10;;;;;;5054322;28;20037;-48
2024/01/29 03:55:39;;;;;;;4.47;2.45;;;3.50;75.40;;;;;;5054671;28;20362;-48
2024/01/29 03:58:05;;;;;;;5.25;2.97;;;3.40;75.40;;;;;;5054265;28;20043;-48
2024/01/29 04:00:30;;;;;;;4.38;2.67;;;3.40;75.50;;;;;;5054533;28;20028;-48
2024/01/29 04:02:57;;;;;;;5.30;2.42;;;3.40;75.60;;;;;;5036567;28;20326;-47
2024/01/29 04:05:22;;;;;;;7.90;3.63;;;3.40;75.50;;;;;;5049384;28;20029;-47
2024/01/29 04:07:48;;;;;;;5.00;2.97;;;3.40;75.80;;;;;;5054664;28;20442;-49
2024/01/29 04:10:15;;;;;;;6.32;3.22;;;3.40;75.50;;;;;;5053765;28;20064;-47
2024/01/29 04:12:43;;;;;;;4.88;2.15;;;3.40;75.70;;;;;;5053579;28;20045;-48
2024/01/29 04:15:09;;;;;;;5.95;2.63;;;3.40;75.30;;;;;;5054573;28;20025;-49
2024/01/29 04:17:35;;;;;;;3.88;2.50;;;3.40;75.30;;;;;;5053413;28;20054;-47
2024/01/29 04:20:06;;;;;;;5.05;2.70;;;3.40;75.10;;;;;;5051748;28;20444;-49
2024/01/29 04:22:33;;;;;;;4.93;2.80;;;3.40;75.40;;;;;;5044469;28;20027;-48
2024/01/29 04:25:04;;;;;;;4.80;3.05;;;3.40;75.20;;;;;;5044097;28;20025;-49
2024/01/29 04:27:30;;;;;;;7.43;2.88;;;3.40;75.60;;;;;;5049177;28;20703;-48
2024/01/29 04:29:58;;;;;;;6.28;2.88;;;3.40;75.30;;;;;;5035974;28;20401;-49
2024/01/29 04:32:26;;;;;;;5.70;3.20;;;3.50;75.20;;;;;;5054251;28;20467;-48
2024/01/29 04:34:52;;;;;;;5.65;2.95;;;3.50;75.10;;;;;;5053963;28;20138;-48
2024/01/29 04:37:17;;;;;;;5.13;3.15;;;3.50;75.20;;;;;;5034705;28;20066;-48
2024/01/29 04:39:43;;;;;;;5.00;2.78;;;3.50;75.00;;;;;;5053310;28;20029;-50
2024/01/29 04:42:09;;;;;;;6.35;3.10;;;3.50;75.00;;;;;;5052969;28;20029;-48
2024/01/29 04:44:34;;;;;;;7.28;3.10;;;3.60;74.70;;;;;;5053241;28;20290;-48
2024/01/29 04:47:00;;;;;;;5.93;2.85;;;3.60;75.00;;;;;;5053629;28;20100;-47
2024/01/29 04:49:26;;;;;;;4.85;2.70;;;3.60;75.30;;;;;;5034246;28;20032;-48
2024/01/29 04:51:52;;;;;;;5.07;3.13;;;3.50;75.30;;;;;;5039914;28;20032;-48
2024/01/29 04:54:19;;;;;;;3.95;2.58;;;3.50;75.40;;;;;;5045572;28;20101;-48
2024/01/29 04:56:45;;;;;;;8.43;3.33;;;3.60;75.40;;;;;;5046284;28;20456;-54
2024/01/29 04:59:11;;;;;;;6.07;3.65;;;3.60;75.80;;;;;;5053093;28;20108;-48
2024/01/29 05:01:36;;;;;;;4.53;2.92;;;3.60;75.80;;;;;;5050381;28;20025;-49
2024/01/29 05:04:02;;;;;;;4.32;2.97;;;3.60;75.90;;;;;;5053239;28;20029;-49
2024/01/29 05:06:28;;;;;;;6.32;3.63;;;3.60;75.90;;;;;;5052503;28;20059;-51
2024/01/29 05:08:55;;;;;;;5.35;2.97;;;3.60;76.00;;;;;;5052559;28;20025;-49
2024/01/29 05:11:24;;;;;;;5.00;3.03;;;3.70;76.10;;;;;;5053152;28;20025;-51
2024/01/29 05:13:49;;;;;;;6.63;3.40;;;3.60;76.10;;;;;;5034588;28;20020;-48
2024/01/29 05:16:15;;;;;;;4.95;2.88;;;3.70;76.00;;;;;;5053451;28;20035;-51
2024/01/29 05:18:43;;;;;;;9.20;5.07;;;3.70;75.70;;;;;;5052511;28;20347;-49
2024/01/29 05:21:10;;;;;;;7.32;3.25;;;3.80;76.00;;;;;;5050842;28;20045;-50
2024/01/29 05:23:36;;;;;;;6.00;3.10;;;3.80;75.80;;;;;;5044612;28;20036;-48
2024/01/29 05:26:03;;;;;;;5.90;3.10;;;3.80;76.00;;;;;;5036171;28;20044;-48
2024/01/29 05:28:28;;;;;;;5.95;3.42;;;3.70;76.20;;;;;;5049917;28;20111;-48
2024/01/29 05:30:54;;;;;;;5.20;3.00;;;3.70;76.40;;;;;;5051098;28;20095;-49
2024/01/29 05:33:20;;;;;;;7.28;3.97;;;3.80;76.40;;;;;;5030033;28;20024;-48
2024/01/29 05:35:45;;;;;;;5.22;3.42;;;3.70;76.30;;;;;;5049843;28;20416;-48
2024/01/29 05:38:11;;;;;;;6.32;3.30;;;3.70;76.20;;;;;;5050364;28;20063;-52
2024/01/29 05:40:39;;;;;;;9.98;3.55;;;3.70;76.30;;;;;;5051706;28;20033;-48
2024/01/29 05:43:04;;;;;;;5.53;3.30;;;3.80;76.40;;;;;;5051044;28;20033;-49
2024/01/29 05:45:30;;;;;;;7.45;4.00;;;3.70;76.20;;;;;;5051811;28;20017;-48
2024/01/29 05:48:02;;;;;;;5.93;3.63;;;3.70;76.50;;;;;;5050686;28;20449;-48
2024/01/29 05:50:28;;;;;;;5.28;2.95;;;3.70;76.40;;;;;;5047721;28;20055;-49
2024/01/29 05:52:54;;;;;;;4.10;3.03;;;3.70;76.40;;;;;;5051716;28;20410;-48
2024/01/29 05:55:19;;;;;;;5.60;3.20;;;3.70;76.70;;;;;;5050549;28;20060;-48
2024/01/29 05:57:45;;;;;;;10.57;3.97;;;3.70;76.90;;;;;;5050867;28;20013;-49
2024/01/29 06:00:12;;;;;;;4.50;2.95;;;3.70;76.70;;;;;;5050509;28;20017;-48
2024/01/29 06:02:45;;;;;;;7.00;3.75;;;3.70;76.60;;;;;;5049575;28;20072;-48
2024/01/29 06:05:14;;;;;;;5.32;3.20;;;3.70;76.50;;;;;;5049519;28;20096;-52
2024/01/29 06:07:40;;;;;;;4.57;2.95;;;3.70;76.40;;;;;;5049627;28;20025;-48
2024/01/29 06:10:08;;;;;;;5.82;3.25;;;3.80;76.50;;;;;;5044782;28;20021;-48
2024/01/29 06:12:34;;;;;;;4.95;3.78;;;3.70;76.50;;;;;;5042635;28;20029;-49
2024/01/29 06:15:00;;;;;;;8.18;3.85;;;3.90;76.50;;;;;;5046753;28;20040;-48
2024/01/29 06:17:33;;;;;;;7.80;3.83;;;3.90;76.50;;;;;;5046953;28;20456;-48
2024/01/29 06:19:58;;;;;;;5.75;3.50;;;3.90;76.60;;;;;;5046408;28;20045;-51
2024/01/29 06:22:24;;;;;;;5.07;3.20;;;3.90;76.90;;;;;;5049645;28;20535;-48
2024/01/29 06:24:52;;;;;;;7.60;4.28;;;3.90;77.00;;;;;;5038708;28;20036;-48
2024/01/29 06:27:17;;;;;;;5.82;3.63;;;4.00;76.70;;;;;;5051071;28;20033;-48
2024/01/29 06:29:43;;;;;;;5.45;4.13;;;4.00;76.10;;;;;;5047075;28;20040;-49
2024/01/29 06:32:09;;;;;;;6.65;3.92;;;4.10;76.50;;;;;;5046683;28;20449;-48
2024/01/29 06:34:36;;;;;;;6.13;4.30;;;4.00;76.40;;;;;;5045844;28;20079;-47
2024/01/29 06:37:01;;;;;;;6.95;3.42;;;4.10;76.70;;;;;;5045963;28;20043;-48
2024/01/29 06:39:27;;;;;;;5.78;4.28;;;4.00;76.60;;;;;;5045360;28;20029;-48
2024/01/29 06:41:52;;;;;;;6.68;3.42;;;4.00;76.70;;;;;;5044543;28;20327;-50
2024/01/29 06:44:18;;;;;;;4.68;3.38;;;4.00;76.70;;;;;;5046867;28;20064;-48
2024/01/29 06:46:44;;;;;;;7.05;3.60;;;3.90;76.70;;;;;;5028907;28;20094;-49
2024/01/29 06:49:27;;;;;;;4.95;3.40;;;3.90;77.00;;;;;;5046967;28;20036;-52
2024/01/29 06:51:54;;;;;;;5.75;3.40;;;3.80;77.00;;;;;;5047714;28;20027;-49
2024/01/29 06:54:19;;;;;;;6.75;3.80;;;3.80;77.30;;;;;;5049678;28;20051;-48
2024/01/29 06:56:46;;;;;;;6.60;4.47;;;3.70;77.40;;;;;;5051030;28;20143;-48
2024/01/29 06:59:12;;;;;;;7.63;4.00;;;3.70;77.80;;;;;;5030062;28;20029;-50
2024/01/29 07:01:38;;;;;;;6.32;3.95;;;3.70;77.80;;;;;;5034774;28;20063;-48
2024/01/29 07:04:04;;;;;;;5.95;3.88;;;3.70;77.80;;;;;;5047399;28;20073;-49
2024/01/29 07:06:30;;;;;;;6.45;3.50;;;3.60;78.10;;;;;;5040423;28;20076;-50
2024/01/29 07:08:56;;;;;;;5.85;3.33;;;3.60;78.20;;;;;;5042016;28;20065;-50
2024/01/29 07:11:22;;;;;;;6.25;4.65;;;3.70;78.00;;;;;;5040663;28;20033;-49
2024/01/29 07:13:47;;;;;;;5.13;3.42;;;3.70;77.90;;;;;;5048334;28;20033;-49
2024/01/29 07:16:13;;;;;;;5.00;3.40;;;3.70;77.90;;;;;;5045351;28;20039;-48
2024/01/29 07:18:41;;;;;;;8.70;4.40;;;3.70;78.00;;;;;;5048377;28;20055;-51
2024/01/29 07:21:09;;;;;;;6.53;3.50;;;3.70;78.20;;;;;;5037042;28;20053;-51
2024/01/29 07:23:34;;;;;;;6.15;3.03;;;3.70;78.20;;;;;;5045558;28;20029;-52
2024/01/29 07:26:03;;;;;;;7.88;3.95;;;3.80;78.00;;;;;;5045270;28;20025;-48
2024/01/29 07:28:29;;;;;;;9.38;4.07;;;3.70;78.30;;;;;;5043578;28;20347;-49
2024/01/29 07:30:56;;;;;;;8.30;4.60;;;3.80;78.30;;;;;;5039133;28;20031;-53
2024/01/29 07:33:22;;;;;;;6.70;3.67;;;3.80;78.50;;;;;;5032440;28;20319;-48
2024/01/29 07:35:48;;;;;;;5.45;3.47;;;3.90;78.40;;;;;;5026369;28;20041;-49
2024/01/29 07:38:14;;;;;;;6.80;3.83;;;3.90;78.50;;;;;;5045462;28;20032;-49
2024/01/29 07:40:39;;;;;;;6.00;4.00;;;3.90;78.50;;;;;;5046939;28;20171;-49
2024/01/29 07:43:05;;;;;;;6.45;4.10;;;3.90;78.40;;;;;;5042058;28;20029;-48
2024/01/29 07:45:30;;;;;;;9.35;5.10;;;3.90;78.50;;;;;;5047548;28;20433;-48
2024/01/29 07:47:59;;;;;;;5.45;3.55;;;4.00;78.30;;;;;;5049085;28;20037;-50
2024/01/29 07:50:24;;;;;;;5.68;3.80;;;3.90;78.40;;;;;;5046811;28;20112;-50
2024/01/29 07:52:50;;;;;;;5.95;3.40;;;3.90;78.70;;;;;;5048113;28;20112;-50
2024/01/29 07:55:16;;;;;;;6.93;4.25;;;4.00;78.70;;;;;;5049256;28;20542;-49
2024/01/29 07:57:44;;;;;;;8.30;4.68;;;3.90;78.50;;;;;;5046334;28;20444;-48
2024/01/29 08:00:13;;;;;;;8.23;4.82;;;3.90;78.80;;;;;;5046863;28;20392;-48
2024/01/29 08:02:38;;;;;;;8.80;4.72;;;3.90;78.90;;;;;;5043971;28;20108;-51
2024/01/29 08:05:04;;;;;;;9.55;4.95;;;3.90;78.90;;;;;;5046982;28;20104;-48
2024/01/29 08:07:30;;;;;;;8.70;4.38;;;3.90;79.20;;;;;;5032631;28;20032;-51
2024/01/29 08:09:57;;;;;;;6.38;3.95;;;3.90;79.20;;;;;;5045208;28;20024;-49
2024/01/29 08:12:23;;;;;;;7.60;4.35;;;3.90;79.50;;;;;;5048374;28;20611;-51
2024/01/29 08:14:49;;;;;;;6.55;4.25;;;3.90;79.40;;;;;;5025564;28;20025;-48
2024/01/29 08:17:15;;;;;;;6.95;4.00;;;3.90;79.50;;;;;;5041679;28;20164;-55
2024/01/29 08:19:40;;;;;;;8.75;4.35;;;3.90;79.70;;;;;;5049252;28;20135;-50
2024/01/29 08:22:06;;;;;;;8.50;4.80;;;3.90;79.80;;;;;;5046293;28;20025;-49
2024/01/29 08:24:36;;;;;;;5.63;3.85;;;3.90;79.70;;;;;;5043365;28;20117;-51
2024/01/29 08:27:01;;;;;;;11.38;5.50;;;4.00;79.70;;;;;;5042239;28;20021;-50
2024/01/29 08:29:27;;;;;;;6.82;4.95;;;4.00;79.80;;;;;;5032995;28;20044;-51
2024/01/29 08:31:53;;;;;;;8.10;5.00;;;3.90;79.70;;;;;;5050787;28;20056;-51
2024/01/29 08:34:18;;;;;;;7.50;4.72;;;4.00;79.80;;;;;;5051706;28;20025;-55
2024/01/29 08:36:44;;;;;;;8.05;4.32;;;4.00;79.60;;;;;;5051231;28;20025;-49
2024/01/29 08:39:09;;;;;;;7.65;4.70;;;4.10;79.70;;;;;;5051062;28;20041;-53
2024/01/29 08:41:35;;;;;;;9.98;4.57;;;4.20;79.70;;;;;;5051912;28;20428;-52
2024/01/29 08:44:03;;;;;;;6.45;4.63;;;4.20;79.50;;;;;;5045065;28;20029;-49
2024/01/29 08:46:29;;;;;;;6.32;4.30;;;4.30;79.50;;;;;;5044948;28;20032;-51
2024/01/29 08:48:56;;;;;;;6.57;4.25;;;4.40;79.60;;;;;;5047829;28;20040;-49
2024/01/29 08:51:25;;;;;;;10.10;4.28;;;4.40;79.60;;;;;;5049980;28;20039;-50
2024/01/29 08:53:50;;;;;;;5.93;4.20;;;4.40;79.70;;;;;;5050744;28;20029;-54
2024/01/29 08:56:16;;;;;;;8.82;5.50;;;4.50;79.70;;;;;;5051557;28;21014;-54
2024/01/29 08:58:44;;;;;;;7.65;4.55;;;4.50;79.70;;;;;;5050327;28;20091;-52
2024/01/29 09:01:10;;;;;;;12.68;5.72;;;4.60;79.60;;;;;;5041779;28;20129;-52
2024/01/29 09:03:35;;;;;;;6.72;5.43;;;4.70;79.70;;;;;;5045639;28;20103;-52
2024/01/29 09:06:01;;;;;;;7.60;5.10;;;4.80;79.70;;;;;;5051613;28;20036;-50
2024/01/29 09:08:27;;;;;;;7.45;5.55;;;4.90;79.50;;;;;;5051034;28;20028;-49
2024/01/29 09:10:53;;;;;;;7.95;5.25;;;5.00;79.60;;;;;;5052085;28;20177;-49
2024/01/29 09:13:19;;;;;;;9.65;5.63;;;5.20;79.70;;;;;;5051532;28;20025;-52
2024/01/29 09:15:44;;;;;;;8.07;5.22;;;5.40;79.40;;;;;;5051004;28;20103;-52
2024/01/29 09:18:13;;;;;;;8.02;5.13;;;5.50;79.20;;;;;;5017124;28;20037;-53
2024/01/29 09:20:41;;;;;;;7.40;5.32;;;5.70;78.90;;;;;;5050940;28;20048;-51
2024/01/29 09:23:08;;;;;;;7.38;5.53;;;6.00;78.80;;;;;;5049894;28;20544;-51
2024/01/29 09:25:34;;;;;;;7.72;5.25;;;6.20;78.20;;;;;;5050780;28;20044;-52
2024/01/29 09:28:00;;;;;;;7.07;5.25;;;6.30;77.50;;;;;;5029833;28;20549;-51
2024/01/29 09:30:25;;;;;;;9.32;5.78;;;6.50;77.20;;;;;;5029967;28;20040;-53
2024/01/29 09:32:51;;;;;;;8.13;5.30;;;6.70;76.40;;;;;;5043837;28;20025;-48
2024/01/29 09:35:17;;;;;;;9.30;5.50;;;6.70;75.90;;;;;;5033450;28;20501;-50
2024/01/29 09:37:42;;;;;;;6.95;5.55;;;6.80;75.70;;;;;;5031767;28;20037;-49
2024/01/29 09:40:12;;;;;;;9.23;5.47;;;6.80;76.00;;;;;;5050383;28;20079;-52
2024/01/29 09:42:41;;;;;;;8.57;5.93;;;6.90;75.80;;;;;;5046376;28;20020;-50
2024/01/29 09:45:10;;;;;;;7.47;5.40;;;7.00;75.60;;;;;;5041483;28;20047;-50
2024/01/29 09:47:37;;;;;;;7.43;5.67;;;7.10;75.20;;;;;;5049418;28;20071;-48
2024/01/29 09:50:07;;;;;;;9.88;5.32;;;7.20;75.00;;;;;;5045677;28;20036;-51
2024/01/29 09:52:37;;;;;;;7.43;5.55;;;7.30;75.20;;;;;;5050278;28;20107;-51
2024/01/29 09:55:06;;;;;;;6.43;5.60;;;7.40;74.80;;;;;;5050636;28;20112;-52
2024/01/29 09:57:35;;;;;;;7.57;5.90;;;7.40;75.10;;;;;;5032679;28;20033;-53
2024/01/29 10:00:03;;;;;;;9.95;6.40;;;7.50;75.20;;;;;;5050819;28;20060;-53
2024/01/29 10:02:32;;;;;;;10.43;6.70;;;7.50;75.00;;;;;;5033226;28;20024;-51
2024/01/29 10:04:57;;;;;;;10.43;6.77;;;7.50;75.00;;;;;;5041502;28;20033;-53
2024/01/29 10:07:23;;;;;;;9.10;6.03;;;7.60;75.20;;;;;;5024482;28;20044;-51
2024/01/29 10:09:55;;;;;;;10.07;7.50;;;7.80;75.50;;;;;;5029993;28;20056;-50
2024/01/29 10:12:28;;;;;;;10.15;6.80;;;7.90;75.30;;;;;;5047744;28;20036;-49
2024/01/29 10:14:56;;;;;;;11.07;7.20;;;8.00;75.00;;;;;;5050801;28;20112;-52
2024/01/29 10:17:26;;;;;;;12.13;7.95;;;8.10;74.80;;;;;;5049737;28;20041;-50
2024/01/29 10:19:51;;;;;;;11.02;8.18;;;8.30;74.40;;;;;;5050519;28;20056;-52
2024/01/29 10:22:24;;;;;;;8.27;6.45;;;8.50;74.40;;;;;;5044154;28;20067;-49
2024/01/29 10:25:10;;;;;;;8.48;6.10;;;8.60;74.10;;;;;;5049799;28;20083;-49
2024/01/29 10:27:36;;;;;;;9.27;6.72;;;8.80;73.20;;;;;;5036212;28;20051;-49
2024/01/29 10:30:04;;;;;;;9.80;7.50;;;8.90;72.90;;;;;;5049906;28;20450;-52
2024/01/29 10:32:32;;;;;;;9.00;6.78;;;8.90;73.10;;;;;;5050792;28;20076;-50
2024/01/29 10:34:57;;;;;;;10.10;6.75;;;8.90;72.80;;;;;;5049832;28;20025;-52
2024/01/29 10:37:26;;;;;;;10.80;7.00;;;8.90;72.90;;;;;;5049205;28;20350;-54
2024/01/29 10:39:55;;;;;;;14.00;7.72;;;8.90;72.70;;;;;;5045648;28;20027;-53
2024/01/29 10:42:21;;;;;;;8.73;6.28;;;8.90;72.70;;;;;;5047604;28;20024;-50
2024/01/29 10:44:47;;;;;;;9.48;6.43;;;8.80;73.10;;;;;;5047017;28;20024;-49
2024/01/29 10:47:28;;;;;;;10.35;6.90;;;8.70;73.80;;;;;;5047241;28;20484;-54
2024/01/29 10:49:56;;;;;;;9.85;7.65;;;8.50;74.20;;;;;;5042398;28;20614;-50
2024/01/29 10:52:23;;;;;;;8.85;6.75;;;8.50;74.80;;;;;;5033275;28;20040;-51
2024/01/29 10:54:50;;;;;;;9.57;8.18;;;8.40;75.30;;;;;;5034098;28;20095;-51
2024/01/29 10:57:18;;;;;;;10.43;8.20;;;8.40;75.50;;;;;;5044499;28;20021;-50
2024/01/29 10:59:47;;;;;;;10.88;6.88;;;8.40;76.00;;;;;;5049615;28;20021;-49
2024/01/29 11:02:16;;;;;;;9.05;8.07;;;8.50;76.40;;;;;;5044366;28;20666;-49
2024/01/29 11:08:13;;;;;;;8.88;7.88;;;8.40;76.40;;;;;;5038315;28;20067;-50
2024/01/29 11:10:38;;;;;;;9.50;7.45;;;8.40;76.90;;;;;;5031579;28;20056;-50
2024/01/29 11:13:12;;;;;;;11.38;9.38;;;8.50;76.70;;;;;;5020865;28;20060;-51
2024/01/29 11:15:38;;;;;;;10.93;8.02;;;8.60;76.60;;;;;;5040127;28;20791;-51
2024/01/29 11:18:05;;;;;;;11.23;8.95;;;8.70;76.90;;;;;;5043581;28;20021;-49
2024/01/29 11:20:33;;;;;;;10.23;7.90;;;8.70;76.60;;;;;;5049252;28;20059;-50
2024/01/29 11:23:03;;;;;;;11.30;8.10;;;8.70;76.90;;;;;;5030743;28;20509;-50
2024/01/29 11:25:30;;;;;;;11.88;7.80;;;8.70;76.90;;;;;;5049901;28;20517;-49
2024/01/29 11:27:56;;;;;;;13.75;9.38;;;8.80;77.30;;;;;;5049549;28;20035;-51
2024/01/29 11:30:26;;;;;;;12.48;8.32;;;8.80;76.90;;;;;;5036827;28;20076;-53
2024/01/29 11:32:54;;;;;;;12.98;8.98;;;8.70;77.30;;;;;;5017220;28;20029;-51
2024/01/29 11:35:22;;;;;;;11.35;8.70;;;8.70;77.20;;;;;;5035564;28;20060;-48
2024/01/29 11:37:51;;;;;;;12.40;10.05;;;8.70;77.30;;;;;;5045106;28;20021;-53
2024/01/29 11:40:43;;;;;;;10.68;8.43;;;8.70;77.80;;;;;;5042360;28;20100;-51
2024/01/29 11:43:21;;;;;;;14.90;9.98;;;8.70;78.20;;;;;;5034635;28;20152;-48
2024/01/29 11:45:51;;;;;;;12.80;8.20;;;8.60;78.50;;;;;;5043896;28;20027;-49
2024/01/29 11:48:18;;;;;;;11.15;8.50;;;8.70;78.70;;;;;;5049834;28;20016;-49
2024/01/29 11:50:48;;;;;;;12.20;9.13;;;8.70;79.40;;;;;;5038092;28;20044;-49
2024/01/29 11:53:15;;;;;;;11.65;9.93;;;8.80;79.30;;;;;;5042588;28;20034;-53
2024/01/29 11:55:46;;;;;;;9.88;8.48;;;9.00;79.00;;;;;;5053203;28;20032;-51
2024/01/29 11:58:15;;;;;;;10.18;9.00;;;9.00;78.40;;;;;;5048825;28;20117;-49
2024/01/29 12:00:44;;;;;;;12.13;8.85;;;9.10;77.80;;;;;;5050962;28;20025;-49
2024/01/29 12:03:16;;;;;;;10.75;8.35;;;9.10;77.50;;;;;;5041124;28;20035;-49
2024/01/29 12:05:44;;;;;;;12.07;9.63;;;9.10;77.30;;;;;;5036177;28;20052;-52
2024/01/29 12:08:19;;;;;;;9.27;8.30;;;9.00;77.40;;;;;;5051085;28;20685;-51
2024/01/29 12:10:49;;;;;;;12.73;9.18;;;9.00;77.70;;;;;;5038152;28;20120;-53
2024/01/29 12:13:16;;;;;;;11.73;9.60;;;9.00;78.60;;;;;;5032567;28;20021;-49
2024/01/29 12:15:43;;;;;;;12.82;9.27;;;9.00;79.10;;;;;;5034836;28;20030;-51
2024/01/29 12:18:19;;;;;;;12.95;10.27;;;8.90;79.50;;;;;;5041728;28;20021;-48
2024/01/29 12:20:47;;;;;;;11.68;10.43;;;8.90;79.80;;;;;;5047671;28;20159;-50
2024/01/29 12:23:13;;;;;;;14.80;10.52;;;8.90;80.00;;;;;;5046102;28;20090;-52
2024/01/29 12:25:39;;;;;;;13.43;10.05;;;8.90;80.10;;;;;;5038339;28;20130;-49
2024/01/29 12:28:12;;;;;;;13.68;11.07;;;8.90;80.30;;;;;;5051404;28;20017;-49
2024/01/29 12:30:39;;;;;;;14.15;10.55;;;8.80;80.50;;;;;;5034883;28;20428;-49
2024/01/29 12:33:07;;;;;;;13.13;10.20;;;8.70;80.50;;;;;;5043317;28;20116;-49
2024/01/29 12:35:34;;;;;;;13.35;10.65;;;8.70;80.60;;;;;;5045901;28;20052;-50
2024/01/29 12:38:12;;;;;;;13.52;10.65;;;8.70;80.70;;;;;;5052664;28;20033;-51
2024/01/29 12:40:41;;;;;;;14.27;9.70;;;8.60;80.90;;;;;;5044310;28;20017;-52
2024/01/29 12:43:09;;;;;;;17.65;12.98;;;8.60;81.00;;;;;;5049454;28;20048;-49
2024/01/29 12:45:38;;;;;;;16.70;12.63;;;8.60;81.30;;;;;;5052725;28;20491;-50
2024/01/29 12:48:19;;;;;;;16.80;12.18;;;8.70;81.70;;;;;;5041861;28;20580;-49
2024/01/29 12:50:45;;;;;;;18.02;13.07;;;8.80;81.80;;;;;;5035926;28;20063;-53
2024/01/29 12:53:12;;;;;;;16.02;13.52;;;8.90;81.50;;;;;;5020540;28;20036;-48
2024/01/29 12:55:42;;;;;;;12.73;11.25;;;8.90;81.70;;;;;;5051564;28;20468;-49
2024/01/29 12:58:07;;;;;;;16.30;11.75;;;9.00;81.30;;;;;;5049135;28;20025;-49